sensor_id;sensor_type;location;lat;lon;timestamp;P1;P2;P0
62591;PMS5003;48659;41.622;2.276;2023-04-03T00:00:51;4;4;
62591;PMS5003;48659;41.622;2.276;2023-04-03T00:03:19;3;3;
62591;PMS5003;48659;41.622;2.276;2023-04-03T00:05:46;2;2;
62591;PMS5003;48659;41.622;2.276;2023-04-03T00:08:30;4;1;
62591;PMS5003;48659;41.622;2.276;2023-04-03T00:10:57;2;2;
62591;PMS5003;48659;41.622;2.276;2023-04-03T00:13:25;4;2;
62591;PMS5003;48659;41.622;2.276;2023-04-03T00:15:52;2;2;
62591;PMS5003;48659;41.622;2.276;2023-04-03T00:18:20;2;2;
62591;PMS5003;48659;41.622;2.276;2023-04-03T00:20:48;1;1;
62591;PMS5003;48659;41.622;2.276;2023-04-03T00:23:16;2;2;
62591;PMS5003;48659;41.622;2.276;2023-04-03T00:25:43;1;1;
62591;PMS5003;48659;41.622;2.276;2023-04-03T00:28:11;1;1;
62591;PMS5003;48659;41.622;2.276;2023-04-03T00:30:38;3;2;
62591;PMS5003;48659;41.622;2.276;2023-04-03T00:33:05;1;1;
62591;PMS5003;48659;41.622;2.276;2023-04-03T00:35:33;2;2;
62591;PMS5003;48659;41.622;2.276;2023-04-03T00:38:01;2;2;
62591;PMS5003;48659;41.622;2.276;2023-04-03T00:40:32;2;2;
62591;PMS5003;48659;41.622;2.276;2023-04-03T00:43:10;1;0;
62591;PMS5003;48659;41.622;2.276;2023-04-03T00:45:39;0;0;
62591;PMS5003;48659;41.622;2.276;2023-04-03T00:48:09;4;4;
62591;PMS5003;48659;41.622;2.276;2023-04-03T00:50:42;1;1;
62591;PMS5003;48659;41.622;2.276;2023-04-03T00:53:11;1;0;
62591;PMS5003;48659;41.622;2.276;2023-04-03T00:55:42;1;1;
62591;PMS5003;48659;41.622;2.276;2023-04-03T00:58:10;0;0;
62591;PMS5003;48659;41.622;2.276;2023-04-03T01:00:40;2;2;
62591;PMS5003;48659;41.622;2.276;2023-04-03T01:03:12;3;3;
62591;PMS5003;48659;41.622;2.276;2023-04-03T01:05:39;2;2;
62591;PMS5003;48659;41.622;2.276;2023-04-03T01:08:07;4;2;
62591;PMS5003;48659;41.622;2.276;2023-04-03T01:10:35;1;1;
62591;PMS5003;48659;41.622;2.276;2023-04-03T01:15:38;6;2;
62591;PMS5003;48659;41.622;2.276;2023-04-03T01:18:08;3;3;
62591;PMS5003;48659;41.622;2.276;2023-04-03T01:20:43;2;2;
62591;PMS5003;48659;41.622;2.276;2023-04-03T01:23:28;3;3;
62591;PMS5003;48659;41.622;2.276;2023-04-03T01:26:03;1;1;
62591;PMS5003;48659;41.622;2.276;2023-04-03T01:28:32;4;3;
62591;PMS5003;48659;41.622;2.276;2023-04-03T01:31:02;2;2;
62591;PMS5003;48659;41.622;2.276;2023-04-03T01:33:37;6;4;
62591;PMS5003;48659;41.622;2.276;2023-04-03T01:36:06;3;3;
62591;PMS5003;48659;41.622;2.276;2023-04-03T01:38:35;3;3;
62591;PMS5003;48659;41.622;2.276;2023-04-03T01:41:02;4;2;
62591;PMS5003;48659;41.622;2.276;2023-04-03T01:43:29;3;3;
62591;PMS5003;48659;41.622;2.276;2023-04-03T01:45:57;4;2;
62591;PMS5003;48659;41.622;2.276;2023-04-03T01:48:24;2;2;
62591;PMS5003;48659;41.622;2.276;2023-04-03T01:50:51;3;3;
62591;PMS5003;48659;41.622;2.276;2023-04-03T01:53:18;4;3;
62591;PMS5003;48659;41.622;2.276;2023-04-03T01:55:45;4;3;
62591;PMS5003;48659;41.622;2.276;2023-04-03T01:58:12;5;5;
62591;PMS5003;48659;41.622;2.276;2023-04-03T02:00:39;4;4;
62591;PMS5003;48659;41.622;2.276;2023-04-03T02:03:06;4;3;
62591;PMS5003;48659;41.622;2.276;2023-04-03T02:05:33;5;4;
62591;PMS5003;48659;41.622;2.276;2023-04-03T02:08:01;6;6;
62591;PMS5003;48659;41.622;2.276;2023-04-03T02:10:29;4;4;
62591;PMS5003;48659;41.622;2.276;2023-04-03T02:12:56;4;4;
62591;PMS5003;48659;41.622;2.276;2023-04-03T02:15:23;7;5;
62591;PMS5003;48659;41.622;2.276;2023-04-03T02:17:50;6;4;
62591;PMS5003;48659;41.622;2.276;2023-04-03T02:20:17;3;3;
62591;PMS5003;48659;41.622;2.276;2023-04-03T02:22:45;5;4;
62591;PMS5003;48659;41.622;2.276;2023-04-03T02:25:12;5;3;
62591;PMS5003;48659;41.622;2.276;2023-04-03T02:27:39;3;3;
62591;PMS5003;48659;41.622;2.276;2023-04-03T02:30:07;4;4;
62591;PMS5003;48659;41.622;2.276;2023-04-03T02:32:34;4;4;
62591;PMS5003;48659;41.622;2.276;2023-04-03T02:35:01;6;5;
62591;PMS5003;48659;41.622;2.276;2023-04-03T02:37:29;4;3;
62591;PMS5003;48659;41.622;2.276;2023-04-03T02:39:57;4;3;
62591;PMS5003;48659;41.622;2.276;2023-04-03T02:42:24;7;4;
62591;PMS5003;48659;41.622;2.276;2023-04-03T02:44:57;7;6;
62591;PMS5003;48659;41.622;2.276;2023-04-03T02:47:24;3;3;
62591;PMS5003;48659;41.622;2.276;2023-04-03T02:49:52;4;4;
62591;PMS5003;48659;41.622;2.276;2023-04-03T02:52:20;3;3;
62591;PMS5003;48659;41.622;2.276;2023-04-03T02:54:48;5;5;
62591;PMS5003;48659;41.622;2.276;2023-04-03T02:57:15;5;5;
62591;PMS5003;48659;41.622;2.276;2023-04-03T02:59:42;4;4;
62591;PMS5003;48659;41.622;2.276;2023-04-03T03:02:10;10;5;
62591;PMS5003;48659;41.622;2.276;2023-04-03T03:04:37;7;6;
62591;PMS5003;48659;41.622;2.276;2023-04-03T03:07:04;4;4;
62591;PMS5003;48659;41.622;2.276;2023-04-03T03:09:31;7;5;
62591;PMS5003;48659;41.622;2.276;2023-04-03T03:11:58;4;4;
62591;PMS5003;48659;41.622;2.276;2023-04-03T03:14:26;8;6;
62591;PMS5003;48659;41.622;2.276;2023-04-03T03:16:53;4;3;
62591;PMS5003;48659;41.622;2.276;2023-04-03T03:19:20;7;5;
62591;PMS5003;48659;41.622;2.276;2023-04-03T03:21:48;7;4;
62591;PMS5003;48659;41.622;2.276;2023-04-03T03:24:15;6;6;
62591;PMS5003;48659;41.622;2.276;2023-04-03T03:26:42;8;6;
62591;PMS5003;48659;41.622;2.276;2023-04-03T03:29:10;5;5;
62591;PMS5003;48659;41.622;2.276;2023-04-03T03:31:37;5;3;
62591;PMS5003;48659;41.622;2.276;2023-04-03T03:34:04;3;3;
62591;PMS5003;48659;41.622;2.276;2023-04-03T03:36:31;4;4;
62591;PMS5003;48659;41.622;2.276;2023-04-03T03:38:59;4;4;
62591;PMS5003;48659;41.622;2.276;2023-04-03T03:41:26;3;3;
62591;PMS5003;48659;41.622;2.276;2023-04-03T03:43:53;4;2;
62591;PMS5003;48659;41.622;2.276;2023-04-03T03:46:20;3;3;
62591;PMS5003;48659;41.622;2.276;2023-04-03T03:48:48;4;3;
62591;PMS5003;48659;41.622;2.276;2023-04-03T03:51:16;3;3;
62591;PMS5003;48659;41.622;2.276;2023-04-03T03:53:43;3;3;
62591;PMS5003;48659;41.622;2.276;2023-04-03T03:56:10;5;3;
62591;PMS5003;48659;41.622;2.276;2023-04-03T03:58:37;4;4;
62591;PMS5003;48659;41.622;2.276;2023-04-03T04:01:05;6;4;
62591;PMS5003;48659;41.622;2.276;2023-04-03T04:03:33;6;5;
62591;PMS5003;48659;41.622;2.276;2023-04-03T04:06:01;3;3;
62591;PMS5003;48659;41.622;2.276;2023-04-03T04:08:29;8;6;
62591;PMS5003;48659;41.622;2.276;2023-04-03T04:10:56;7;7;
62591;PMS5003;48659;41.622;2.276;2023-04-03T04:13:23;5;5;
62591;PMS5003;48659;41.622;2.276;2023-04-03T04:15:51;11;9;
62591;PMS5003;48659;41.622;2.276;2023-04-03T04:18:18;10;6;
62591;PMS5003;48659;41.622;2.276;2023-04-03T04:20:45;14;13;
62591;PMS5003;48659;41.622;2.276;2023-04-03T04:23:13;10;10;
62591;PMS5003;48659;41.622;2.276;2023-04-03T04:25:41;9;7;
62591;PMS5003;48659;41.622;2.276;2023-04-03T04:28:10;7;7;
62591;PMS5003;48659;41.622;2.276;2023-04-03T04:30:37;9;6;
62591;PMS5003;48659;41.622;2.276;2023-04-03T04:33:04;5;5;
62591;PMS5003;48659;41.622;2.276;2023-04-03T04:35:32;4;4;
62591;PMS5003;48659;41.622;2.276;2023-04-03T04:37:59;4;4;
62591;PMS5003;48659;41.622;2.276;2023-04-03T04:40:26;8;7;
62591;PMS5003;48659;41.622;2.276;2023-04-03T04:42:57;10;5;
62591;PMS5003;48659;41.622;2.276;2023-04-03T04:45:24;5;5;
62591;PMS5003;48659;41.622;2.276;2023-04-03T04:47:51;5;5;
62591;PMS5003;48659;41.622;2.276;2023-04-03T04:50:21;3;3;
62591;PMS5003;48659;41.622;2.276;2023-04-03T04:52:48;4;4;
62591;PMS5003;48659;41.622;2.276;2023-04-03T04:55:16;5;4;
62591;PMS5003;48659;41.622;2.276;2023-04-03T04:57:43;5;5;
62591;PMS5003;48659;41.622;2.276;2023-04-03T05:00:11;3;3;
62591;PMS5003;48659;41.622;2.276;2023-04-03T05:02:39;6;4;
62591;PMS5003;48659;41.622;2.276;2023-04-03T05:05:07;9;6;
62591;PMS5003;48659;41.622;2.276;2023-04-03T05:07:35;7;7;
62591;PMS5003;48659;41.622;2.276;2023-04-03T05:10:03;10;9;
62591;PMS5003;48659;41.622;2.276;2023-04-03T05:12:31;7;7;
62591;PMS5003;48659;41.622;2.276;2023-04-03T05:14:59;8;6;
62591;PMS5003;48659;41.622;2.276;2023-04-03T05:17:27;9;6;
62591;PMS5003;48659;41.622;2.276;2023-04-03T05:19:54;11;8;
62591;PMS5003;48659;41.622;2.276;2023-04-03T05:22:21;7;7;
62591;PMS5003;48659;41.622;2.276;2023-04-03T05:24:48;11;9;
62591;PMS5003;48659;41.622;2.276;2023-04-03T05:27:16;9;8;
62591;PMS5003;48659;41.622;2.276;2023-04-03T05:29:44;7;6;
62591;PMS5003;48659;41.622;2.276;2023-04-03T05:32:11;11;6;
62591;PMS5003;48659;41.622;2.276;2023-04-03T05:34:39;9;5;
62591;PMS5003;48659;41.622;2.276;2023-04-03T05:37:06;7;5;
62591;PMS5003;48659;41.622;2.276;2023-04-03T05:39:33;7;7;
62591;PMS5003;48659;41.622;2.276;2023-04-03T05:42:01;8;7;
62591;PMS5003;48659;41.622;2.276;2023-04-03T05:44:29;10;8;
62591;PMS5003;48659;41.622;2.276;2023-04-03T05:46:56;6;6;
62591;PMS5003;48659;41.622;2.276;2023-04-03T05:49:24;12;9;
62591;PMS5003;48659;41.622;2.276;2023-04-03T05:51:51;11;10;
62591;PMS5003;48659;41.622;2.276;2023-04-03T05:54:19;13;10;
62591;PMS5003;48659;41.622;2.276;2023-04-03T05:56:50;15;14;
62591;PMS5003;48659;41.622;2.276;2023-04-03T05:59:17;11;10;
62591;PMS5003;48659;41.622;2.276;2023-04-03T06:01:45;16;10;
62591;PMS5003;48659;41.622;2.276;2023-04-03T06:04:13;10;9;
62591;PMS5003;48659;41.622;2.276;2023-04-03T06:06:43;12;10;
62591;PMS5003;48659;41.622;2.276;2023-04-03T06:09:13;13;12;
62591;PMS5003;48659;41.622;2.276;2023-04-03T06:11:40;11;9;
62591;PMS5003;48659;41.622;2.276;2023-04-03T06:14:07;12;6;
62591;PMS5003;48659;41.622;2.276;2023-04-03T06:16:36;10;8;
62591;PMS5003;48659;41.622;2.276;2023-04-03T06:19:03;9;8;
62591;PMS5003;48659;41.622;2.276;2023-04-03T06:21:30;9;8;
62591;PMS5003;48659;41.622;2.276;2023-04-03T06:23:57;11;8;
62591;PMS5003;48659;41.622;2.276;2023-04-03T06:26:25;12;10;
62591;PMS5003;48659;41.622;2.276;2023-04-03T06:28:52;15;12;
62591;PMS5003;48659;41.622;2.276;2023-04-03T06:31:19;19;13;
62591;PMS5003;48659;41.622;2.276;2023-04-03T06:33:46;9;9;
62591;PMS5003;48659;41.622;2.276;2023-04-03T06:36:15;18;17;
62591;PMS5003;48659;41.622;2.276;2023-04-03T06:38:44;15;11;
62591;PMS5003;48659;41.622;2.276;2023-04-03T06:41:12;13;10;
62591;PMS5003;48659;41.622;2.276;2023-04-03T06:43:39;11;9;
62591;PMS5003;48659;41.622;2.276;2023-04-03T06:46:08;13;10;
62591;PMS5003;48659;41.622;2.276;2023-04-03T06:48:40;8;8;
62591;PMS5003;48659;41.622;2.276;2023-04-03T06:51:10;7;6;
62591;PMS5003;48659;41.622;2.276;2023-04-03T06:53:44;12;8;
62591;PMS5003;48659;41.622;2.276;2023-04-03T06:56:11;12;11;
62591;PMS5003;48659;41.622;2.276;2023-04-03T06:58:39;12;10;
62591;PMS5003;48659;41.622;2.276;2023-04-03T07:01:07;9;9;
62591;PMS5003;48659;41.622;2.276;2023-04-03T07:03:34;8;8;
62591;PMS5003;48659;41.622;2.276;2023-04-03T07:06:02;8;7;
62591;PMS5003;48659;41.622;2.276;2023-04-03T07:08:31;10;6;
62591;PMS5003;48659;41.622;2.276;2023-04-03T07:10:58;7;7;
62591;PMS5003;48659;41.622;2.276;2023-04-03T07:13:26;11;7;
62591;PMS5003;48659;41.622;2.276;2023-04-03T07:15:54;7;7;
62591;PMS5003;48659;41.622;2.276;2023-04-03T07:18:22;13;10;
62591;PMS5003;48659;41.622;2.276;2023-04-03T07:20:50;12;9;
62591;PMS5003;48659;41.622;2.276;2023-04-03T07:23:18;16;14;
62591;PMS5003;48659;41.622;2.276;2023-04-03T07:25:45;15;13;
62591;PMS5003;48659;41.622;2.276;2023-04-03T07:28:15;19;12;
62591;PMS5003;48659;41.622;2.276;2023-04-03T07:30:43;18;11;
62591;PMS5003;48659;41.622;2.276;2023-04-03T07:33:11;13;12;
62591;PMS5003;48659;41.622;2.276;2023-04-03T07:35:39;13;11;
62591;PMS5003;48659;41.622;2.276;2023-04-03T07:38:07;10;8;
62591;PMS5003;48659;41.622;2.276;2023-04-03T07:40:34;9;9;
62591;PMS5003;48659;41.622;2.276;2023-04-03T07:43:02;9;9;
62591;PMS5003;48659;41.622;2.276;2023-04-03T07:45:30;8;8;
62591;PMS5003;48659;41.622;2.276;2023-04-03T07:47:58;9;9;
62591;PMS5003;48659;41.622;2.276;2023-04-03T07:50:25;6;6;
62591;PMS5003;48659;41.622;2.276;2023-04-03T07:52:52;7;7;
62591;PMS5003;48659;41.622;2.276;2023-04-03T07:55:20;11;9;
62591;PMS5003;48659;41.622;2.276;2023-04-03T07:57:47;10;8;
62591;PMS5003;48659;41.622;2.276;2023-04-03T08:00:16;5;5;
62591;PMS5003;48659;41.622;2.276;2023-04-03T08:02:44;8;6;
62591;PMS5003;48659;41.622;2.276;2023-04-03T08:05:11;6;6;
62591;PMS5003;48659;41.622;2.276;2023-04-03T08:07:38;4;3;
62591;PMS5003;48659;41.622;2.276;2023-04-03T08:10:06;5;5;
62591;PMS5003;48659;41.622;2.276;2023-04-03T08:12:34;3;3;
62591;PMS5003;48659;41.622;2.276;2023-04-03T08:15:02;5;4;
62591;PMS5003;48659;41.622;2.276;2023-04-03T08:17:30;6;6;
62591;PMS5003;48659;41.622;2.276;2023-04-03T08:19:57;5;4;
62591;PMS5003;48659;41.622;2.276;2023-04-03T08:22:24;7;5;
62591;PMS5003;48659;41.622;2.276;2023-04-03T08:24:52;7;7;
62591;PMS5003;48659;41.622;2.276;2023-04-03T08:27:19;5;5;
62591;PMS5003;48659;41.622;2.276;2023-04-03T08:29:45;5;5;
62591;PMS5003;48659;41.622;2.276;2023-04-03T08:32:12;5;4;
62591;PMS5003;48659;41.622;2.276;2023-04-03T08:34:40;4;4;
62591;PMS5003;48659;41.622;2.276;2023-04-03T08:37:07;7;4;
62591;PMS5003;48659;41.622;2.276;2023-04-03T08:39:34;4;4;
62591;PMS5003;48659;41.622;2.276;2023-04-03T08:42:05;4;4;
62591;PMS5003;48659;41.622;2.276;2023-04-03T08:44:44;4;4;
62591;PMS5003;48659;41.622;2.276;2023-04-03T08:47:18;9;5;
62591;PMS5003;48659;41.622;2.276;2023-04-03T08:49:57;4;4;
62591;PMS5003;48659;41.622;2.276;2023-04-03T08:52:31;3;3;
62591;PMS5003;48659;41.622;2.276;2023-04-03T08:55:03;12;12;
62591;PMS5003;48659;41.622;2.276;2023-04-03T08:57:35;4;4;
62591;PMS5003;48659;41.622;2.276;2023-04-03T09:00:09;4;4;
62591;PMS5003;48659;41.622;2.276;2023-04-03T09:02:45;3;3;
62591;PMS5003;48659;41.622;2.276;2023-04-03T09:05:15;4;3;
62591;PMS5003;48659;41.622;2.276;2023-04-03T09:07:46;4;2;
62591;PMS5003;48659;41.622;2.276;2023-04-03T09:10:23;2;2;
62591;PMS5003;48659;41.622;2.276;2023-04-03T09:12:55;4;4;
62591;PMS5003;48659;41.622;2.276;2023-04-03T09:15:29;3;3;
62591;PMS5003;48659;41.622;2.276;2023-04-03T09:17:59;4;3;
62591;PMS5003;48659;41.622;2.276;2023-04-03T09:20:33;3;3;
62591;PMS5003;48659;41.622;2.276;2023-04-03T09:23:12;2;2;
62591;PMS5003;48659;41.622;2.276;2023-04-03T09:25:46;1;1;
62591;PMS5003;48659;41.622;2.276;2023-04-03T09:28:16;2;2;
62591;PMS5003;48659;41.622;2.276;2023-04-03T09:30:43;4;4;
62591;PMS5003;48659;41.622;2.276;2023-04-03T09:33:10;3;3;
62591;PMS5003;48659;41.622;2.276;2023-04-03T09:35:39;1;1;
62591;PMS5003;48659;41.622;2.276;2023-04-03T09:38:18;2;2;
62591;PMS5003;48659;41.622;2.276;2023-04-03T09:40:47;7;5;
62591;PMS5003;48659;41.622;2.276;2023-04-03T09:43:32;3;3;
62591;PMS5003;48659;41.622;2.276;2023-04-03T09:46:18;3;3;
62591;PMS5003;48659;41.622;2.276;2023-04-03T09:49:01;3;3;
62591;PMS5003;48659;41.622;2.276;2023-04-03T09:51:30;3;3;
62591;PMS5003;48659;41.622;2.276;2023-04-03T09:53:58;3;3;
62591;PMS5003;48659;41.622;2.276;2023-04-03T09:56:26;3;1;
62591;PMS5003;48659;41.622;2.276;2023-04-03T09:59:06;2;2;
62591;PMS5003;48659;41.622;2.276;2023-04-03T10:01:41;4;4;
62591;PMS5003;48659;41.622;2.276;2023-04-03T10:04:24;5;2;
62591;PMS5003;48659;41.622;2.276;2023-04-03T10:06:53;3;3;
62591;PMS5003;48659;41.622;2.276;2023-04-03T10:09:22;1;1;
62591;PMS5003;48659;41.622;2.276;2023-04-03T10:11:59;2;2;
62591;PMS5003;48659;41.622;2.276;2023-04-03T10:14:29;3;3;
62591;PMS5003;48659;41.622;2.276;2023-04-03T10:16:59;2;2;
62591;PMS5003;48659;41.622;2.276;2023-04-03T10:19:37;1;1;
62591;PMS5003;48659;41.622;2.276;2023-04-03T10:22:12;2;1;
62591;PMS5003;48659;41.622;2.276;2023-04-03T10:24:48;3;1;
62591;PMS5003;48659;41.622;2.276;2023-04-03T10:27:22;2;2;
62591;PMS5003;48659;41.622;2.276;2023-04-03T10:29:59;1;1;
62591;PMS5003;48659;41.622;2.276;2023-04-03T10:32:42;2;2;
62591;PMS5003;48659;41.622;2.276;2023-04-03T10:35:20;1;1;
62591;PMS5003;48659;41.622;2.276;2023-04-03T10:38:01;3;1;
62591;PMS5003;48659;41.622;2.276;2023-04-03T10:40:37;2;2;
62591;PMS5003;48659;41.622;2.276;2023-04-03T10:43:14;3;2;
62591;PMS5003;48659;41.622;2.276;2023-04-03T10:45:51;1;1;
62591;PMS5003;48659;41.622;2.276;2023-04-03T10:48:28;2;2;
62591;PMS5003;48659;41.622;2.276;2023-04-03T10:51:09;3;3;
62591;PMS5003;48659;41.622;2.276;2023-04-03T10:53:44;3;2;
62591;PMS5003;48659;41.622;2.276;2023-04-03T10:56:18;2;2;
62591;PMS5003;48659;41.622;2.276;2023-04-03T10:58:56;2;0;
62591;PMS5003;48659;41.622;2.276;2023-04-03T11:01:31;2;2;
62591;PMS5003;48659;41.622;2.276;2023-04-03T11:04:03;3;2;
62591;PMS5003;48659;41.622;2.276;2023-04-03T11:06:35;1;1;
62591;PMS5003;48659;41.622;2.276;2023-04-03T11:09:11;1;1;
62591;PMS5003;48659;41.622;2.276;2023-04-03T11:11:46;0;0;
62591;PMS5003;48659;41.622;2.276;2023-04-03T11:14:17;1;1;
62591;PMS5003;48659;41.622;2.276;2023-04-03T11:16:50;3;3;
62591;PMS5003;48659;41.622;2.276;2023-04-03T11:19:27;2;2;
62591;PMS5003;48659;41.622;2.276;2023-04-03T11:22:01;0;0;
62591;PMS5003;48659;41.622;2.276;2023-04-03T11:24:36;5;2;
62591;PMS5003;48659;41.622;2.276;2023-04-03T11:27:08;1;0;
62591;PMS5003;48659;41.622;2.276;2023-04-03T11:29:42;1;1;
62591;PMS5003;48659;41.622;2.276;2023-04-03T11:32:20;1;1;
62591;PMS5003;48659;41.622;2.276;2023-04-03T11:35:02;2;2;
62591;PMS5003;48659;41.622;2.276;2023-04-03T11:37:33;1;0;
62591;PMS5003;48659;41.622;2.276;2023-04-03T11:40:06;0;0;
62591;PMS5003;48659;41.622;2.276;2023-04-03T11:42:47;0;0;
62591;PMS5003;48659;41.622;2.276;2023-04-03T11:45:17;1;1;
62591;PMS5003;48659;41.622;2.276;2023-04-03T11:47:58;3;2;
62591;PMS5003;48659;41.622;2.276;2023-04-03T11:50:43;3;1;
62591;PMS5003;48659;41.622;2.276;2023-04-03T11:53:44;2;2;
62591;PMS5003;48659;41.622;2.276;2023-04-03T11:56:28;3;1;
62591;PMS5003;48659;41.622;2.276;2023-04-03T11:59:15;2;2;
62591;PMS5003;48659;41.622;2.276;2023-04-03T12:01:49;2;2;
62591;PMS5003;48659;41.622;2.276;2023-04-03T12:04:18;1;1;
62591;PMS5003;48659;41.622;2.276;2023-04-03T12:06:53;0;0;
62591;PMS5003;48659;41.622;2.276;2023-04-03T12:09:57;1;1;
62591;PMS5003;48659;41.622;2.276;2023-04-03T12:12:33;1;1;
62591;PMS5003;48659;41.622;2.276;2023-04-03T12:15:38;2;2;
62591;PMS5003;48659;41.622;2.276;2023-04-03T12:21:01;0;0;
62591;PMS5003;48659;41.622;2.276;2023-04-03T12:23:29;2;2;
62591;PMS5003;48659;41.622;2.276;2023-04-03T12:26:02;2;2;
62591;PMS5003;48659;41.622;2.276;2023-04-03T12:28:36;1;1;
62591;PMS5003;48659;41.622;2.276;2023-04-03T12:31:05;3;2;
62591;PMS5003;48659;41.622;2.276;2023-04-03T12:33:41;1;1;
62591;PMS5003;48659;41.622;2.276;2023-04-03T12:36:22;3;1;
62591;PMS5003;48659;41.622;2.276;2023-04-03T12:38:59;2;2;
62591;PMS5003;48659;41.622;2.276;2023-04-03T12:41:36;2;1;
62591;PMS5003;48659;41.622;2.276;2023-04-03T12:44:15;4;2;
62591;PMS5003;48659;41.622;2.276;2023-04-03T12:46:52;5;3;
62591;PMS5003;48659;41.622;2.276;2023-04-03T12:49:26;3;1;
62591;PMS5003;48659;41.622;2.276;2023-04-03T12:52:02;1;1;
62591;PMS5003;48659;41.622;2.276;2023-04-03T12:54:39;2;1;
62591;PMS5003;48659;41.622;2.276;2023-04-03T12:57:09;1;1;
62591;PMS5003;48659;41.622;2.276;2023-04-03T12:59:37;2;2;
62591;PMS5003;48659;41.622;2.276;2023-04-03T13:02:10;1;1;
62591;PMS5003;48659;41.622;2.276;2023-04-03T13:04:49;3;1;
62591;PMS5003;48659;41.622;2.276;2023-04-03T13:07:24;4;2;
62591;PMS5003;48659;41.622;2.276;2023-04-03T13:09:56;1;1;
62591;PMS5003;48659;41.622;2.276;2023-04-03T13:12:26;1;1;
62591;PMS5003;48659;41.622;2.276;2023-04-03T13:14:55;0;0;
62591;PMS5003;48659;41.622;2.276;2023-04-03T13:17:25;4;2;
62591;PMS5003;48659;41.622;2.276;2023-04-03T13:19:53;3;2;
62591;PMS5003;48659;41.622;2.276;2023-04-03T13:22:25;0;0;
62591;PMS5003;48659;41.622;2.276;2023-04-03T13:24:58;1;1;
62591;PMS5003;48659;41.622;2.276;2023-04-03T13:27:30;2;2;
62591;PMS5003;48659;41.622;2.276;2023-04-03T13:29:58;1;1;
62591;PMS5003;48659;41.622;2.276;2023-04-03T13:32:29;3;3;
62591;PMS5003;48659;41.622;2.276;2023-04-03T13:34:58;4;2;
62591;PMS5003;48659;41.622;2.276;2023-04-03T13:37:26;4;3;
62591;PMS5003;48659;41.622;2.276;2023-04-03T13:39:57;3;1;
62591;PMS5003;48659;41.622;2.276;2023-04-03T13:42:27;1;1;
62591;PMS5003;48659;41.622;2.276;2023-04-03T13:45:18;3;2;
62591;PMS5003;48659;41.622;2.276;2023-04-03T13:47:47;1;1;
62591;PMS5003;48659;41.622;2.276;2023-04-03T13:50:17;1;1;
62591;PMS5003;48659;41.622;2.276;2023-04-03T13:52:47;3;2;
62591;PMS5003;48659;41.622;2.276;2023-04-03T13:55:17;1;1;
62591;PMS5003;48659;41.622;2.276;2023-04-03T13:57:50;0;0;
62591;PMS5003;48659;41.622;2.276;2023-04-03T14:00:20;3;2;
62591;PMS5003;48659;41.622;2.276;2023-04-03T14:02:55;1;1;
62591;PMS5003;48659;41.622;2.276;2023-04-03T14:05:23;0;0;
62591;PMS5003;48659;41.622;2.276;2023-04-03T14:07:50;0;0;
62591;PMS5003;48659;41.622;2.276;2023-04-03T14:10:18;1;1;
62591;PMS5003;48659;41.622;2.276;2023-04-03T14:12:46;1;1;
62591;PMS5003;48659;41.622;2.276;2023-04-03T14:15:16;0;0;
62591;PMS5003;48659;41.622;2.276;2023-04-03T14:17:46;2;2;
62591;PMS5003;48659;41.622;2.276;2023-04-03T14:20:15;1;1;
62591;PMS5003;48659;41.622;2.276;2023-04-03T14:22:43;3;2;
62591;PMS5003;48659;41.622;2.276;2023-04-03T14:25:11;1;1;
62591;PMS5003;48659;41.622;2.276;2023-04-03T14:27:41;1;0;
62591;PMS5003;48659;41.622;2.276;2023-04-03T14:30:12;2;2;
62591;PMS5003;48659;41.622;2.276;2023-04-03T14:32:43;1;1;
62591;PMS5003;48659;41.622;2.276;2023-04-03T14:35:11;4;1;
62591;PMS5003;48659;41.622;2.276;2023-04-03T14:37:38;0;0;
62591;PMS5003;48659;41.622;2.276;2023-04-03T14:40:07;2;2;
62591;PMS5003;48659;41.622;2.276;2023-04-03T14:42:36;1;1;
62591;PMS5003;48659;41.622;2.276;2023-04-03T14:45:05;1;0;
62591;PMS5003;48659;41.622;2.276;2023-04-03T14:47:34;1;1;
62591;PMS5003;48659;41.622;2.276;2023-04-03T14:50:07;0;0;
62591;PMS5003;48659;41.622;2.276;2023-04-03T14:52:38;3;2;
62591;PMS5003;48659;41.622;2.276;2023-04-03T14:55:06;1;1;
62591;PMS5003;48659;41.622;2.276;2023-04-03T14:57:34;3;1;
62591;PMS5003;48659;41.622;2.276;2023-04-03T15:00:03;2;2;
62591;PMS5003;48659;41.622;2.276;2023-04-03T15:02:32;1;1;
62591;PMS5003;48659;41.622;2.276;2023-04-03T15:05:00;2;2;
62591;PMS5003;48659;41.622;2.276;2023-04-03T15:07:30;0;0;
62591;PMS5003;48659;41.622;2.276;2023-04-03T15:10:00;2;2;
62591;PMS5003;48659;41.622;2.276;2023-04-03T15:12:30;3;2;
62591;PMS5003;48659;41.622;2.276;2023-04-03T15:14:58;4;0;
62591;PMS5003;48659;41.622;2.276;2023-04-03T15:17:25;1;1;
62591;PMS5003;48659;41.622;2.276;2023-04-03T15:19:53;2;0;
62591;PMS5003;48659;41.622;2.276;2023-04-03T15:22:20;2;0;
62591;PMS5003;48659;41.622;2.276;2023-04-03T15:24:48;1;1;
62591;PMS5003;48659;41.622;2.276;2023-04-03T15:27:15;3;2;
62591;PMS5003;48659;41.622;2.276;2023-04-03T15:29:43;0;0;
62591;PMS5003;48659;41.622;2.276;2023-04-03T15:32:12;1;1;
62591;PMS5003;48659;41.622;2.276;2023-04-03T15:34:40;2;2;
62591;PMS5003;48659;41.622;2.276;2023-04-03T15:37:07;4;3;
62591;PMS5003;48659;41.622;2.276;2023-04-03T15:39:35;2;2;
62591;PMS5003;48659;41.622;2.276;2023-04-03T15:42:02;2;2;
62591;PMS5003;48659;41.622;2.276;2023-04-03T15:44:29;4;4;
62591;PMS5003;48659;41.622;2.276;2023-04-03T15:46:56;1;1;
62591;PMS5003;48659;41.622;2.276;2023-04-03T15:49:25;2;1;
62591;PMS5003;48659;41.622;2.276;2023-04-03T15:51:53;1;1;
62591;PMS5003;48659;41.622;2.276;2023-04-03T15:54:20;2;2;
62591;PMS5003;48659;41.622;2.276;2023-04-03T15:56:47;2;2;
62591;PMS5003;48659;41.622;2.276;2023-04-03T15:59:14;4;1;
62591;PMS5003;48659;41.622;2.276;2023-04-03T16:01:41;1;1;
62591;PMS5003;48659;41.622;2.276;2023-04-03T16:04:09;2;2;
62591;PMS5003;48659;41.622;2.276;2023-04-03T16:06:37;3;3;
62591;PMS5003;48659;41.622;2.276;2023-04-03T16:09:05;2;2;
62591;PMS5003;48659;41.622;2.276;2023-04-03T16:11:33;1;1;
62591;PMS5003;48659;41.622;2.276;2023-04-03T16:14:01;1;1;
62591;PMS5003;48659;41.622;2.276;2023-04-03T16:16:28;2;2;
62591;PMS5003;48659;41.622;2.276;2023-04-03T16:18:56;2;1;
62591;PMS5003;48659;41.622;2.276;2023-04-03T16:21:23;1;1;
62591;PMS5003;48659;41.622;2.276;2023-04-03T16:23:50;1;1;
62591;PMS5003;48659;41.622;2.276;2023-04-03T16:26:18;3;1;
62591;PMS5003;48659;41.622;2.276;2023-04-03T16:28:45;1;1;
62591;PMS5003;48659;41.622;2.276;2023-04-03T16:31:13;1;1;
62591;PMS5003;48659;41.622;2.276;2023-04-03T16:33:40;2;2;
62591;PMS5003;48659;41.622;2.276;2023-04-03T16:36:08;1;1;
62591;PMS5003;48659;41.622;2.276;2023-04-03T16:38:35;3;1;
62591;PMS5003;48659;41.622;2.276;2023-04-03T16:41:03;2;2;
62591;PMS5003;48659;41.622;2.276;2023-04-03T16:43:31;1;1;
62591;PMS5003;48659;41.622;2.276;2023-04-03T16:45:59;2;2;
62591;PMS5003;48659;41.622;2.276;2023-04-03T16:48:27;3;2;
62591;PMS5003;48659;41.622;2.276;2023-04-03T16:50:55;1;1;
62591;PMS5003;48659;41.622;2.276;2023-04-03T16:53:22;2;2;
62591;PMS5003;48659;41.622;2.276;2023-04-03T16:55:51;1;1;
62591;PMS5003;48659;41.622;2.276;2023-04-03T16:58:18;1;1;
62591;PMS5003;48659;41.622;2.276;2023-04-03T17:00:46;1;1;
62591;PMS5003;48659;41.622;2.276;2023-04-03T17:03:13;2;2;
62591;PMS5003;48659;41.622;2.276;2023-04-03T17:05:41;1;1;
62591;PMS5003;48659;41.622;2.276;2023-04-03T17:08:08;2;2;
62591;PMS5003;48659;41.622;2.276;2023-04-03T17:10:35;2;2;
62591;PMS5003;48659;41.622;2.276;2023-04-03T17:13:02;4;1;